Taunton 2W

41° 53' 56"N, 71° 08' 19"W, Elevation 50 ft.
Eastern Time

Hourly observations for the last 72 hours

Date Time Temperature (°F) Humi-
dity

(%)
Wind
(mph)
Pressure Rain (in) Sun
(W/m2)
UV ET
(in)
Air Dew 6 Hour 1 Hr 3 Hr 6 Hr Day
Alt
(in)
Sea
Level

(mb)
Max Min
20 18:00 27.2 14.4 58 SSE 3 G 5 30.43 1030.4 0.00 0 0.0 0.026
20 17:00 27.6 11.4 50 SSW 4 G 10 30.44 1031.0 0.00 14 0.0 0.024
20 16:00 28.4 9.8 45 SSW 5 G 8 30.46 1031.6 0.00 51 0.0 0.022
20 15:00 28.7 10.0 45 WSW 3 G 5 30.48 1032.1 0.00 90 0.0 0.020
20 14:00 28.5 8.3 42 SSW 3 G 5 30.49 1032.6 0.00 229 1.1 0.017
20 13:00 27.6 9.5 27.7 11.6 46 NNW 2 G 3 30.50 1032.8 0.00 236 1.3 0.014
20 12:00 26.5 7.5 44 WNW 0 G 4 30.53 1034.0 0.00 246 1.4 0.010
20 11:00 25.7 10.1 51 WNW 5 G 8 30.57 1035.1 0.00 232 1.2 0.006
20 10:00 23.9 10.5 56 NNW 2 G 8 30.58 1035.6 0.00 285 1.3 0.003
20 09:00 21.2 9.5 60 W 3 G 5 30.58 1035.4 0.00 213 0.7 0.001
20 08:00 16.4 10.7 78 W 0 G 1 30.59 1036.0 0.00 125 0.0 0.000
20 07:00 11.6 8.2 13.3 10.6 86 W 2 G 2 30.57 1035.2 0.00 30 0.0 0.000
20 06:00 11.0 7.4 85 W 1 G 2 30.59 1035.8 0.00 0 0.0 0.000
20 05:00 11.2 7.6 85 W 2 G 4 30.59 1036.0 0.00 0 0.0 0.000
20 04:00 11.6 8.0 85 WNW 1 G 2 30.56 1034.8 0.00 0 0.0 0.000
20 03:00 11.3 7.1 83 WNW 1 G 3 30.56 1034.8 0.00 0 0.0 0.000
20 02:00 11.8 7.6 83 WNW 2 G 4 30.57 1035.4 0.00 0 0.0 0.000
20 01:00 13.0 7.1 25.9 13.0 77 WNW 2 G 4 30.56 1034.8 0.00 0 0.0 0.000
20 00:00 16.8 8.1 68 WNW 2 G 4 30.55 1034.6 0.00 0 0.0 0.075
19 23:00 20.4 7.2 56 WNW 2 G 6 30.55 1034.5 0.00 0 0.0 0.074
19 22:00 20.9 7.3 55 WNW 2 G 6 30.55 1034.5 0.00 0 0.0 0.073
19 21:00 24.5 6.7 46 NW 5 G 8 30.54 1034.2 0.00 0 0.0 0.072
19 20:00 25.3 6.9 45 NW 8 G 11 30.51 1033.1 0.00 0 0.0 0.071
19 19:00 25.9 7.0 33.1 25.9 44 W 3 G 8 30.49 1032.6 0.00 0 0.0 0.069
19 18:00 27.8 7.7 42 W 8 G 12 30.47 1032.0 0.00 0 0.0 0.068
19 17:00 29.8 10.0 43 WNW 6 G 11 30.45 1031.3 0.00 25 0.0 0.065
19 16:00 32.3 10.1 39 W 3 G 11 30.44 1030.9 0.00 149 0.0 0.059
19 15:00 32.6 9.8 38 W 9 G 15 30.44 1030.7 0.00 353 0.9 0.051
19 14:00 32.0 10.4 40 NW 7 G 17 30.44 1030.8 0.00 526 1.5 0.042
19 13:00 30.8 8.7 31.3 8.1 39 NW 10 G 20 30.45 1031.2 0.00 619 2.3 0.032
19 12:00 29.6 10.3 44 NW 10 G 16 30.47 1031.8 0.00 661 2.6 0.023
19 11:00 27.4 12.1 52 NNW 3 G 14 30.47 1031.8 0.00 642 2.4 0.015
19 10:00 23.6 9.8 55 N 9 G 21 30.46 1031.4 0.00 568 1.7 0.009
19 09:00 20.1 9.5 63 NW 8 G 15 30.45 1031.1 0.00 299 0.8 0.005
19 08:00 17.6 9.5 70 NW 6 G 13 30.43 1030.5 0.00 269 0.0 0.004
19 07:00 8.1 5.3 19.2 7.8 88 NW 1 G 3 30.40 1029.5 0.00 23 0.0 0.004
19 06:00 9.2 5.9 86 Calm 30.38 1028.9 0.00 0 0.0 0.004
19 05:00 13.6 7.7 77 NW 1 G 3 30.36 1028.1 0.00 0 0.0 0.004
19 04:00 15.8 9.0 74 NW 5 G 8 30.33 1027.2 0.00 0 0.0 0.003
19 03:00 16.8 10.0 74 NW 6 G 10 30.31 1026.3 0.00 0 0.0 0.002
19 02:00 17.9 10.4 72 NW 5 G 11 30.29 1025.7 0.00 0 0.0 0.001
19 01:00 19.1 11.2 28.5 19.1 71 NW 4 G 10 30.27 1025.0 0.00 0 0.0 0.000
19 00:00 20.9 13.3 72 NW 8 G 22 30.22 1023.5 0.50 0 0.0 0.013
18 23:00 23.3 17.2 77 WNW 7 G 18 30.17 1021.7 0.50 0 0.0 0.012
18 22:00 25.7 20.7 81 NW 5 G 13 30.13 1020.3 0.50 0 0.0 0.011
18 21:00 26.8 24.0 89 NW 3 G 7 30.08 1018.7 0.50 0 0.0 0.011
18 20:00 28.4 25.3 88 NNW 4 G 9 30.04 1017.2 0.50 0 0.0 0.011
18 19:00 28.3 25.2 33.7 28.3 88 NNW 5 G 9 29.99 1015.7 0.01 0.50 0 0.0 0.011
18 18:00 29.1 26.0 88 N 5 G 10 29.94 1013.8 0.50 0 0.0 0.011
18 17:00 29.7 26.6 88 NW 8 G 14 29.88 1011.8 0.50 9 0.0 0.010
18 16:00 30.7 28.1 90 NNW 6 G 10 29.84 1010.6 0.01 0.50 21 0.0 0.009
18 15:00 32.3 30.2 92 NNW 5 G 11 29.80 1009.2 0.01 0.50 40 0.0 0.008
18 14:00 33.2 30.6 90 NNW 5 G 9 29.79 1008.8 0.49 102 0.5 0.006
18 13:00 33.6 31.0 33.9 27.8 90 N 4 G 10 29.77 1008.2 0.10 0.49 165 0.8 0.003
18 12:00 33.2 30.9 91 N 4 G 9 29.77 1008.2 0.49 197 0.6 0.001
18 11:00 31.9 29.8 92 NNW 6 G 9 29.79 1008.7 0.49 76 0.0 0.000
18 10:00 30.6 28.8 93 NNW 5 G 8 29.80 1009.2 0.10 0.49 14 0.0 0.000
18 09:00 29.1 27.6 94 NNW 3 G 7 29.82 1010.0 0.05 0.49 14 0.0 0.000
18 08:00 28.4 26.9 94 NNE 1 G 3 29.83 1010.4 0.05 0.44 11 0.0 0.000
18 07:00 27.8 26.3 28.4 27.1 94 N 1 G 5 29.85 1010.7 0.08 0.23 0.36 0.39 0 0.0 0.000
18 06:00 27.4 25.9 94 ENE 2 G 5 29.85 1010.9 0.08 0.31 0 0.0 0.000
18 05:00 27.3 25.8 94 E 2 G 5 29.89 1012.3 0.07 0.23 0 0.0 0.000
18 04:00 27.8 26.0 93 E 1 G 3 29.91 1013.0 0.04 0.13 0.16 0 0.0 0.000
18 03:00 28.1 26.3 93 ENE 1 G 4 29.93 1013.6 0.05 0.12 0 0.0 0.000
18 02:00 28.3 26.3 92 E 1 G 3 29.97 1014.8 0.04 0.07 0 0.0 0.000
18 01:00 28.3 26.0 31.0 27.3 91 ENE 1 G 2 30.00 1015.8 0.03 0.03 0.03 0.03 0 0.0 0.000
18 00:00 29.2 24.7 83 S 2 G 9 30.01 1016.3 0.00 0 0.0 0.076
17 23:00 30.5 23.2 74 SE 0 G 2 30.01 1016.3 0.00 0 0.0 0.075
17 22:00 30.8 21.8 69 S 2 G 4 30.01 1016.5 0.00 0 0.0 0.074
17 21:00 30.2 20.9 68 ESE 4 G 6 30.01 1016.4 0.00 0 0.0 0.073
17 20:00 27.7 21.4 77 Calm 30.04 1017.3 0.00 0 0.0 0.073
17 19:00 27.5 20.6 39.1 27.5 75 ESE 1 G 3 30.05 1017.7 0.00 0 0.0 0.072

Data generated by WxSolution Version 1.9.1.7, Build 2018.11.24.